Owosso, Michigan
Current Conditions -  °F | °C
As of 9:33 AM on Thursday 30 Oct 2014 (Local Time) from KRNP Reporting Station
Overcast Overcast  
Wind Chill: 40°   Ceiling: 3800
Heat Index: 40°   Visibility: 10mi
Dew Point: 38°   Wind: 0mph
Humidity: 90%   Direction: NA
Pressure: 30.13"   Gusts: NA
Location:  43°N, 84.18°W
Report Text: KRNP 301333Z AUTO 00000KT 10SM OVC038 05/03 A3013 RMK AO2 T00470032
Loading
Personal Weather Stations






























Interactive Weather Map
Tropical Storm Tracking
New forecast layout! Learn more

10-Day Weather Forecast

Advertisements
Track Severe Weather on mobile